[Closed] EGBB @ TS - Low visibility

Come do patterns or fly elsewhere and give me some feedback… this is how much I can see from the tower…

METAR: EGBB 162050Z 18003KT 0800 R15/0225 FG BKN001 04/04 Q1030

1 Like

Expert server or training?

Training - see title :)

1 Like

Haha that’s awkward 😂

1 Like

Thank you for stopping by, if you have any feedback please PM me :). Thank you, good day.

1 Like

Great controlling, thanks

1 Like

I see the fog, how far was your visibility?

0.15km

image

image

1 Like

My view from the tower while visibility was 0.15km

1 Like

Man I love when the weather does that on IF. Usually when I connect to any region the weather is clear and calm, lol.

1 Like

This topic was automatically closed 90 days after the last reply. New replies are no longer allowed.